ホニアラ の空港の天気 - METARとTAF

ホニアラ国際空港 ( AGGH / HIR ) - ソロモン諸島 ガダルカナル島ホニアラ
飛行場実況気象(Metar)
観測時間11/27 20:00 SBT (11/27 09:00 UTC)
風向・風速静穏 0m/s
視程10km以上
天気現象
少しの雲 雲底高度 460m
少しの雲 雲底高度 490m
全天の4割程度の雲 雲底高度 820m
全天の8割程度の雲 雲底高度 3050m
気温26℃
湿度94%
気圧1008hPa
METARAGGH 270900Z 00000KT 9999 FEW015 FEW016CB SCT027 BKN100 26/25 Q1008 RMKS SHOWERS IN THE AREA
過去の天気等 Google飛行場航空写真 Wunderground天気予報

過去48時間のMETAR

飛行場予報(TAF)
発表時間: 11/27 16:05 SBT (11/27 05:05 UTC)
予報対象時間: 27日17時 SBT ~ 28日17時 SBT
風向・風速北 5m/s
視程10km以上
全天の4割程度の雲 雲底高度 550m
全天の8割程度の雲 雲底高度 3050m
27日17時 SBT から 確率 40% で
視程5000m
天気現象雷しゅう雨
少しの雲 雲底高度 430m
全天の4割程度の積乱雲 雲底高度 550m
全天の8割程度の雲 雲底高度 850m
TAF AGGH 270505Z 2706/2806 36010KT 9999 SCT018 BKN100
PROB40 2706/2712 5000 TSSH FEW014 SCT018CB BKN028 T 28 25 24 24 Q 1006 1008 1009 1007